Time;durP1;ratioP1;P1;durP2;ratioP2;P2;SDS_P1;SDS_P2;PMS_P1;PMS_P2;Temp;Humidity;BMP_temperature;BMP_pressure;BME280_temperature;BME280_humidity;BME280_pressure;Samples;Min_cycle;Max_cycle;Signal;HPM_P1;HPM_P2
2021/12/09 00:01:03;;;;;;;115.85;43.90;;;0.80;99.90;;;;;;5039726;28;20037;-66
2021/12/09 00:03:32;;;;;;;120.22;42.78;;;0.90;99.90;;;;;;5039572;28;20033;-66
2021/12/09 00:05:59;;;;;;;119.15;43.63;;;0.80;99.90;;;;;;5039609;28;20472;-66
2021/12/09 00:08:27;;;;;;;124.57;43.63;;;0.90;99.90;;;;;;5039314;28;20032;-66
2021/12/09 00:10:55;;;;;;;118.20;44.35;;;0.90;99.90;;;;;;5039500;28;20032;-66
2021/12/09 00:13:22;;;;;;;116.60;45.03;;;0.90;99.90;;;;;;5038723;28;20026;-66
2021/12/09 00:15:48;;;;;;;124.60;45.95;;;0.90;99.90;;;;;;5039195;28;20435;-66
2021/12/09 00:18:14;;;;;;;122.78;44.90;;;0.90;99.90;;;;;;5039569;28;20029;-66
2021/12/09 00:20:40;;;;;;;114.13;43.53;;;1.00;99.90;;;;;;5039269;28;20038;-66
2021/12/09 00:23:07;;;;;;;123.35;44.72;;;1.00;99.90;;;;;;5038660;28;20120;-66
2021/12/09 00:25:33;;;;;;;115.22;43.42;;;1.00;99.90;;;;;;5039423;28;20033;-66
2021/12/09 00:27:59;;;;;;;123.40;45.30;;;1.10;99.90;;;;;;5038836;28;20069;-66
2021/12/09 00:30:25;;;;;;;113.63;44.40;;;1.10;99.90;;;;;;5039205;28;20026;-66
2021/12/09 00:32:50;;;;;;;120.05;46.85;;;1.20;99.90;;;;;;5038943;28;20029;-66
2021/12/09 00:35:17;;;;;;;123.30;47.75;;;1.20;99.90;;;;;;5038542;28;20047;-66
2021/12/09 00:38:01;;;;;;;121.82;47.80;;;1.20;99.90;;;;;;5020639;28;20083;-66
2021/12/09 00:40:27;;;;;;;134.50;46.47;;;1.30;99.90;;;;;;5038721;28;20087;-66
2021/12/09 00:42:53;;;;;;;128.75;46.92;;;1.30;99.90;;;;;;5035234;28;20041;-66
2021/12/09 00:45:20;;;;;;;131.23;46.80;;;1.30;99.90;;;;;;5035845;28;20033;-66
2021/12/09 00:47:45;;;;;;;117.32;45.38;;;1.30;99.90;;;;;;5035892;28;20021;-66
2021/12/09 00:50:11;;;;;;;122.20;46.95;;;1.30;99.90;;;;;;5034168;28;20018;-66
2021/12/09 00:52:37;;;;;;;131.40;47.78;;;1.30;99.90;;;;;;5032064;28;20105;-66
2021/12/09 00:55:05;;;;;;;132.35;49.97;;;1.30;99.90;;;;;;5035735;28;20030;-66
2021/12/09 00:57:31;;;;;;;134.98;47.72;;;1.30;99.90;;;;;;5036008;28;20032;-66
2021/12/09 00:59:58;;;;;;;137.43;49.33;;;1.30;99.90;;;;;;5034557;28;20029;-66
2021/12/09 01:02:24;;;;;;;131.40;47.40;;;1.30;99.90;;;;;;5017772;28;20029;-66
2021/12/09 01:04:50;;;;;;;124.45;47.90;;;1.40;99.90;;;;;;5035946;28;20473;-66
2021/12/09 01:07:15;;;;;;;123.88;46.92;;;1.40;99.90;;;;;;5035536;28;20026;-66
2021/12/09 01:09:41;;;;;;;125.18;47.80;;;1.40;99.90;;;;;;5034869;28;20066;-66
2021/12/09 01:12:08;;;;;;;135.38;50.67;;;1.40;99.90;;;;;;5035345;28;20017;-66
2021/12/09 01:14:37;;;;;;;128.35;49.05;;;1.40;99.90;;;;;;5035398;28;20026;-66
2021/12/09 01:17:04;;;;;;;127.65;49.75;;;1.40;99.90;;;;;;5035327;28;20147;-66
2021/12/09 01:19:30;;;;;;;126.90;48.00;;;1.40;99.90;;;;;;5034812;28;20380;-66
2021/12/09 01:21:56;;;;;;;125.32;47.90;;;1.40;99.90;;;;;;5035176;28;20025;-66
2021/12/09 01:24:21;;;;;;;131.77;48.65;;;1.40;99.90;;;;;;5035144;28;20481;-66
2021/12/09 01:26:49;;;;;;;132.93;49.45;;;1.40;99.90;;;;;;5035091;28;20021;-66
2021/12/09 01:29:19;;;;;;;132.70;49.63;;;1.50;99.90;;;;;;5034521;28;20021;-66
2021/12/09 01:31:53;;;;;;;135.73;50.85;;;1.40;99.90;;;;;;5035659;28;20021;-66
2021/12/09 01:34:21;;;;;;;130.90;48.05;;;1.40;99.90;;;;;;5035369;28;20025;-66
2021/12/09 01:36:48;;;;;;;135.40;50.85;;;1.40;99.90;;;;;;5033663;28;20052;-66
2021/12/09 01:39:14;;;;;;;130.55;49.30;;;1.40;99.90;;;;;;5035134;28;20037;-66
2021/12/09 01:41:39;;;;;;;147.48;51.70;;;1.50;99.90;;;;;;5034544;28;20544;-66
2021/12/09 01:44:05;;;;;;;142.70;48.45;;;1.40;99.90;;;;;;5034219;28;20056;-66
2021/12/09 01:46:31;;;;;;;122.88;48.13;;;1.40;99.90;;;;;;5034675;28;20017;-66
2021/12/09 01:48:56;;;;;;;135.45;49.03;;;1.40;99.90;;;;;;5034969;28;20026;-66
2021/12/09 01:51:22;;;;;;;137.98;49.63;;;1.50;99.90;;;;;;5032957;28;20413;-66
2021/12/09 01:53:48;;;;;;;136.30;51.40;;;1.50;99.90;;;;;;5033455;28;20393;-66
2021/12/09 01:56:21;;;;;;;137.40;49.55;;;1.40;99.90;;;;;;5034285;28;20025;-66
2021/12/09 01:58:53;;;;;;;126.63;46.00;;;1.40;99.90;;;;;;5016480;28;20108;-66
2021/12/09 02:01:19;;;;;;;130.98;49.22;;;1.40;99.90;;;;;;5034203;28;20030;-66
2021/12/09 02:03:45;;;;;;;126.32;47.38;;;1.40;99.90;;;;;;5032940;28;20407;-66
2021/12/09 02:06:11;;;;;;;130.82;47.55;;;1.40;99.90;;;;;;5034018;28;20484;-66
2021/12/09 02:08:37;;;;;;;135.38;46.75;;;1.40;99.90;;;;;;5033913;28;20048;-66
2021/12/09 02:11:03;;;;;;;132.57;46.88;;;1.40;99.90;;;;;;5034187;28;20381;-66
2021/12/09 02:13:29;;;;;;;144.55;50.83;;;1.40;99.90;;;;;;5033654;28;20464;-66
2021/12/09 02:15:56;;;;;;;122.38;45.65;;;1.40;99.90;;;;;;5033700;28;20087;-66
2021/12/09 02:18:22;;;;;;;128.50;45.85;;;1.40;99.90;;;;;;5034438;28;20396;-66
2021/12/09 02:21:03;;;;;;;118.90;46.25;;;1.40;99.90;;;;;;5033198;28;20128;-66
2021/12/09 02:23:28;;;;;;;122.43;44.92;;;1.40;99.90;;;;;;5020189;28;20480;-66
2021/12/09 02:25:54;;;;;;;121.85;43.50;;;1.40;99.90;;;;;;5033106;28;20037;-65
2021/12/09 02:28:19;;;;;;;128.23;45.30;;;1.40;99.90;;;;;;5033954;28;20032;-66
2021/12/09 02:30:45;;;;;;;129.27;47.53;;;1.40;99.90;;;;;;5033676;28;20087;-66
2021/12/09 02:33:11;;;;;;;117.20;44.17;;;1.40;99.90;;;;;;5033762;28;20124;-66
2021/12/09 02:35:38;;;;;;;124.50;47.30;;;1.40;99.90;;;;;;5033718;28;20091;-66
2021/12/09 02:38:22;;;;;;;126.88;47.22;;;1.40;99.90;;;;;;5033857;28;20503;-66
2021/12/09 02:40:49;;;;;;;;;;;1.40;99.90;;;;;;5033171;28;20083;-66
2021/12/09 02:43:15;;;;;;;129.98;46.40;;;1.40;99.90;;;;;;5033715;28;19940;-66
2021/12/09 02:45:48;;;;;;;118.13;45.67;;;1.40;99.90;;;;;;5033644;28;20063;-66
2021/12/09 02:48:17;;;;;;;134.48;49.58;;;1.40;99.90;;;;;;5033843;28;20053;-66
2021/12/09 02:50:42;;;;;;;115.03;46.53;;;1.50;99.90;;;;;;5030302;28;20068;-66
2021/12/09 02:53:08;;;;;;;139.73;49.08;;;1.30;99.90;;;;;;5032806;28;20060;-66
2021/12/09 02:55:33;;;;;;;143.50;49.63;;;1.40;99.90;;;;;;5033306;28;20029;-66
2021/12/09 02:58:02;;;;;;;125.07;46.72;;;1.40;99.90;;;;;;5033473;28;20485;-66
2021/12/09 03:00:28;;;;;;;127.90;47.60;;;1.40;99.90;;;;;;5031992;28;20112;-66
2021/12/09 03:02:56;;;;;;;132.02;46.72;;;1.40;99.90;;;;;;5033467;28;20068;-66
2021/12/09 03:05:22;;;;;;;141.85;49.58;;;1.40;99.90;;;;;;5032508;28;20033;-66
2021/12/09 03:07:48;;;;;;;133.18;49.40;;;1.40;99.90;;;;;;5033601;28;20377;-66
2021/12/09 03:10:23;;;;;;;145.43;48.30;;;1.40;99.90;;;;;;5031668;28;20172;-66
2021/12/09 03:12:56;;;;;;;137.55;49.05;;;1.40;99.90;;;;;;5033549;28;20097;-66
2021/12/09 03:15:23;;;;;;;142.82;49.20;;;1.40;99.90;;;;;;5033083;28;20036;-66
2021/12/09 03:17:49;;;;;;;148.05;51.00;;;1.40;99.90;;;;;;5033249;28;20053;-66
2021/12/09 03:20:17;;;;;;;138.18;47.78;;;1.40;99.90;;;;;;5032930;28;20111;-66
2021/12/09 03:22:45;;;;;;;137.40;48.78;;;1.40;99.90;;;;;;5032537;28;20021;-66
2021/12/09 03:25:13;;;;;;;126.93;47.40;;;1.50;99.90;;;;;;5032282;28;20500;-66
2021/12/09 03:27:39;;;;;;;146.05;51.58;;;1.50;99.90;;;;;;5033106;28;20025;-65
2021/12/09 03:30:07;;;;;;;151.18;50.72;;;1.50;99.90;;;;;;5032711;28;20017;-66
2021/12/09 03:32:33;;;;;;;142.15;51.97;;;1.50;99.90;;;;;;5032511;28;20029;-66
2021/12/09 03:34:59;;;;;;;142.30;51.20;;;1.50;99.90;;;;;;5032180;28;20440;-66
2021/12/09 03:37:27;;;;;;;140.95;46.58;;;1.50;99.90;;;;;;5032995;28;20417;-66
2021/12/09 03:39:54;;;;;;;134.93;49.55;;;1.50;99.90;;;;;;5031555;28;20079;-66
2021/12/09 03:42:23;;;;;;;130.80;47.20;;;1.50;99.90;;;;;;5013039;28;20029;-66
2021/12/09 03:44:50;;;;;;;136.40;47.88;;;1.50;99.90;;;;;;5012944;28;20437;-66
2021/12/09 03:47:18;;;;;;;135.30;47.30;;;1.50;99.90;;;;;;5032645;28;20370;-66
2021/12/09 03:49:44;;;;;;;145.38;50.03;;;1.50;99.90;;;;;;5032624;28;20432;-66
2021/12/09 03:52:11;;;;;;;137.23;48.90;;;1.50;99.90;;;;;;5032749;28;20057;-66
2021/12/09 03:54:37;;;;;;;145.07;49.20;;;1.50;99.90;;;;;;5032917;28;20423;-66
2021/12/09 03:57:03;;;;;;;123.93;48.63;;;1.50;99.90;;;;;;5032583;28;20036;-65
2021/12/09 03:59:29;;;;;;;127.75;47.03;;;1.50;99.90;;;;;;5032580;28;20535;-66
2021/12/09 04:01:54;;;;;;;130.75;50.08;;;1.40;99.90;;;;;;5030610;28;20029;-66
2021/12/09 04:04:21;;;;;;;133.60;47.42;;;1.50;99.90;;;;;;5033311;28;20473;-66
2021/12/09 04:06:47;;;;;;;143.15;52.30;;;1.50;99.90;;;;;;5032449;28;20404;-66
2021/12/09 04:09:19;;;;;;;126.75;50.17;;;1.50;99.90;;;;;;5032750;28;20060;-66
2021/12/09 04:11:44;;;;;;;125.60;47.55;;;1.50;99.90;;;;;;5014753;28;20022;-66
2021/12/09 04:14:10;;;;;;;133.73;49.55;;;1.40;99.90;;;;;;5032179;28;20041;-66
2021/12/09 04:16:36;;;;;;;142.45;52.72;;;1.50;99.90;;;;;;5033604;28;20033;-66
2021/12/09 04:19:04;;;;;;;139.13;50.70;;;1.50;99.90;;;;;;5036430;28;20061;-66
2021/12/09 04:21:30;;;;;;;122.57;47.65;;;1.50;99.90;;;;;;5036625;28;20033;-66
2021/12/09 04:23:56;;;;;;;116.78;47.13;;;1.50;99.90;;;;;;5035894;28;20448;-66
2021/12/09 04:26:22;;;;;;;128.73;49.90;;;1.50;99.90;;;;;;5035532;28;20152;-66
2021/12/09 04:28:48;;;;;;;133.57;50.45;;;1.50;99.90;;;;;;5036283;28;20431;-66
2021/12/09 04:31:14;;;;;;;139.98;48.85;;;1.50;99.90;;;;;;5035630;28;20075;-66
2021/12/09 04:33:42;;;;;;;124.65;46.08;;;1.50;99.90;;;;;;5035915;28;20083;-66
2021/12/09 04:36:07;;;;;;;121.15;46.45;;;1.40;99.90;;;;;;5035885;28;20056;-66
2021/12/09 04:38:33;;;;;;;131.55;49.90;;;1.40;99.90;;;;;;5035258;28;20061;-66
2021/12/09 04:40:59;;;;;;;137.32;51.90;;;1.50;99.90;;;;;;5035186;28;20038;-66
2021/12/09 04:43:24;;;;;;;124.28;49.33;;;1.50;99.90;;;;;;5036042;28;20030;-66
2021/12/09 04:45:50;;;;;;;135.57;49.55;;;1.40;99.90;;;;;;5035842;28;20113;-66
2021/12/09 04:48:16;;;;;;;149.02;50.95;;;1.40;99.90;;;;;;5035231;28;20104;-66
2021/12/09 04:50:42;;;;;;;134.02;51.05;;;1.40;99.90;;;;;;5035714;28;20162;-66
2021/12/09 04:53:09;;;;;;;136.38;51.13;;;1.40;99.90;;;;;;5035905;28;20026;-66
2021/12/09 04:55:35;;;;;;;137.65;49.13;;;1.40;99.90;;;;;;5034724;28;20040;-66
2021/12/09 04:58:01;;;;;;;143.52;50.13;;;1.40;99.90;;;;;;5034918;28;20026;-66
2021/12/09 05:00:29;;;;;;;147.90;50.50;;;1.40;99.90;;;;;;5033998;28;20049;-66
2021/12/09 05:03:08;;;;;;;138.65;49.85;;;1.40;99.90;;;;;;5034959;28;20099;-66
2021/12/09 05:05:41;;;;;;;131.63;51.90;;;1.40;99.90;;;;;;5035208;28;20184;-66
2021/12/09 05:08:10;;;;;;;136.77;51.63;;;1.40;99.90;;;;;;5035797;28;20029;-66
2021/12/09 05:10:52;;;;;;;148.57;51.03;;;1.40;99.90;;;;;;5034887;28;20037;-66
2021/12/09 05:13:19;;;;;;;141.00;50.97;;;1.40;99.90;;;;;;5017667;28;20028;-66
2021/12/09 05:15:45;;;;;;;152.07;53.05;;;1.40;99.90;;;;;;5034778;28;20092;-66
2021/12/09 05:18:11;;;;;;;152.57;52.78;;;1.30;99.90;;;;;;5035325;28;20049;-67
2021/12/09 05:20:37;;;;;;;151.98;54.17;;;1.40;99.90;;;;;;5034851;28;20521;-66
2021/12/09 05:23:03;;;;;;;151.27;53.28;;;1.40;99.90;;;;;;5035278;28;20104;-66
2021/12/09 05:25:29;;;;;;;155.18;53.65;;;1.40;99.90;;;;;;5034945;28;20053;-66
2021/12/09 05:27:55;;;;;;;158.10;53.58;;;1.40;99.90;;;;;;5034795;28;20430;-66
2021/12/09 05:30:24;;;;;;;152.85;52.60;;;1.40;99.90;;;;;;5034330;28;20079;-66
2021/12/09 05:32:51;;;;;;;149.15;55.13;;;1.30;99.90;;;;;;5078325;22;20047;-70
2021/12/09 05:35:18;;;;;;;161.10;53.42;;;1.30;99.90;;;;;;5095347;28;20115;-70
2021/12/09 05:37:44;;;;;;;161.38;53.80;;;1.30;99.90;;;;;;5093914;28;20074;-70
2021/12/09 05:40:12;;;;;;;158.35;55.53;;;1.30;99.90;;;;;;5094831;28;20043;-69
2021/12/09 05:42:38;;;;;;;158.45;55.67;;;1.30;99.90;;;;;;5094708;28;20032;-70
2021/12/09 05:45:05;;;;;;;154.50;54.75;;;1.30;99.90;;;;;;5089264;28;20024;-70
2021/12/09 05:47:31;;;;;;;148.73;51.63;;;1.30;99.90;;;;;;5075063;28;20028;-69
2021/12/09 05:49:57;;;;;;;152.68;52.08;;;1.30;99.90;;;;;;5078592;28;20125;-70
2021/12/09 05:52:22;;;;;;;149.13;53.85;;;1.30;99.90;;;;;;5094840;28;20498;-69
2021/12/09 05:54:48;;;;;;;155.50;56.60;;;1.30;99.90;;;;;;5092355;28;20471;-70
2021/12/09 05:57:14;;;;;;;161.77;55.08;;;1.30;99.90;;;;;;5080186;28;20036;-70
2021/12/09 05:59:41;;;;;;;161.20;55.58;;;1.30;99.90;;;;;;5089320;28;20118;-70
2021/12/09 06:02:08;;;;;;;165.25;55.95;;;1.30;99.90;;;;;;5094911;28;20016;-69
2021/12/09 06:04:35;;;;;;;165.48;57.35;;;1.30;99.90;;;;;;5094954;28;20023;-69
2021/12/09 06:07:00;;;;;;;148.48;54.13;;;1.30;99.90;;;;;;5075277;28;20024;-70
2021/12/09 06:09:26;;;;;;;154.50;55.08;;;1.30;99.90;;;;;;5074618;28;20445;-69
2021/12/09 06:11:53;;;;;;;154.88;53.65;;;1.30;99.90;;;;;;5091674;28;20027;-69
2021/12/09 06:14:18;;;;;;;147.82;54.90;;;1.30;99.90;;;;;;5093139;28;20020;-69
2021/12/09 06:16:45;;;;;;;164.70;54.25;;;1.30;99.90;;;;;;5078326;28;20082;-69
2021/12/09 06:19:11;;;;;;;160.10;58.05;;;1.30;99.90;;;;;;5081812;28;20020;-69
2021/12/09 06:21:36;;;;;;;154.93;54.70;;;1.40;99.90;;;;;;5093808;28;20027;-69
2021/12/09 06:24:02;;;;;;;170.95;55.83;;;1.40;99.90;;;;;;5087868;28;20063;-70
2021/12/09 06:26:30;;;;;;;170.80;54.72;;;1.40;99.90;;;;;;5074472;28;20024;-69
2021/12/09 06:28:56;;;;;;;158.02;54.65;;;1.40;99.90;;;;;;5078411;28;20032;-70
2021/12/09 06:31:22;;;;;;;158.43;56.65;;;1.40;99.90;;;;;;5093616;28;20020;-69
2021/12/09 06:33:49;;;;;;;163.57;55.17;;;1.40;99.90;;;;;;5090457;28;20051;-70
2021/12/09 06:36:16;;;;;;;160.38;54.92;;;1.40;99.90;;;;;;5089205;28;20032;-70
2021/12/09 06:38:41;;;;;;;175.35;56.50;;;1.40;99.90;;;;;;5091051;28;20431;-70
2021/12/09 06:41:08;;;;;;;163.32;56.95;;;1.40;99.90;;;;;;5074620;28;20111;-70
2021/12/09 06:43:37;;;;;;;157.18;54.03;;;1.40;99.90;;;;;;5073524;28;20020;-70
2021/12/09 06:46:06;;;;;;;165.68;56.00;;;1.30;99.90;;;;;;5074400;28;20020;-70
2021/12/09 06:48:33;;;;;;;152.57;54.53;;;1.40;99.90;;;;;;5073057;28;20033;-70
2021/12/09 06:51:01;;;;;;;156.73;53.97;;;1.30;99.90;;;;;;5091557;28;20542;-70
2021/12/09 06:53:30;;;;;;;150.80;54.45;;;1.40;99.90;;;;;;5085522;28;20043;-70
2021/12/09 06:55:56;;;;;;;152.02;54.67;;;1.30;99.90;;;;;;5073345;28;20027;-69
2021/12/09 06:58:22;;;;;;;162.85;56.88;;;1.40;99.90;;;;;;5089309;28;20036;-70
2021/12/09 07:00:50;;;;;;;175.05;59.47;;;1.40;99.90;;;;;;5092437;28;20016;-69
2021/12/09 07:03:17;;;;;;;166.35;55.03;;;1.30;99.90;;;;;;5092653;28;20036;-69
2021/12/09 07:05:44;;;;;;;162.63;56.20;;;1.30;99.90;;;;;;5093671;28;20020;-70
2021/12/09 07:08:10;;;;;;;166.25;55.55;;;1.30;99.90;;;;;;5092436;28;20103;-70
2021/12/09 07:10:36;;;;;;;160.65;53.90;;;1.30;99.90;;;;;;5093521;28;20104;-70
2021/12/09 07:13:04;;;;;;;155.82;54.40;;;1.30;99.90;;;;;;5076186;28;20395;-69
2021/12/09 07:15:29;;;;;;;154.20;56.10;;;1.30;99.90;;;;;;5092728;28;20028;-70
2021/12/09 07:17:55;;;;;;;176.15;57.72;;;1.30;99.90;;;;;;5089128;28;20120;-70
2021/12/09 07:20:25;;;;;;;177.35;54.28;;;1.30;99.90;;;;;;5073223;28;20048;-70
2021/12/09 07:22:51;;;;;;;155.70;55.00;;;1.40;99.90;;;;;;5082092;28;20407;-70
2021/12/09 07:25:19;;;;;;;166.25;55.22;;;1.30;99.90;;;;;;5093308;28;20028;-69
2021/12/09 07:27:45;;;;;;;153.63;53.20;;;1.30;99.90;;;;;;5077767;28;20519;-70
2021/12/09 07:30:12;;;;;;;161.25;55.08;;;1.30;99.90;;;;;;5071792;28;20056;-70
2021/12/09 07:32:38;;;;;;;159.55;55.58;;;1.30;99.90;;;;;;5076124;28;20036;-69
2021/12/09 07:35:05;;;;;;;163.73;56.13;;;1.30;99.90;;;;;;5073522;28;20379;-70
2021/12/09 07:37:31;;;;;;;177.27;56.55;;;1.30;99.90;;;;;;5083607;28;20039;-70
2021/12/09 07:39:57;;;;;;;172.27;55.97;;;1.30;99.90;;;;;;5085231;28;20025;-70
2021/12/09 07:42:23;;;;;;;176.75;59.55;;;1.30;99.90;;;;;;5082866;28;20024;-69
2021/12/09 07:44:48;;;;;;;173.07;56.85;;;1.40;99.90;;;;;;5080138;28;20020;-70
2021/12/09 07:47:14;;;;;;;164.25;58.30;;;1.30;99.90;;;;;;5080965;28;20424;-70
2021/12/09 07:49:40;;;;;;;182.82;56.80;;;1.30;99.90;;;;;;5077277;28;20025;-69
2021/12/09 07:52:06;;;;;;;177.75;60.28;;;1.30;99.90;;;;;;5076801;28;20016;-70
2021/12/09 07:54:32;;;;;;;168.77;56.80;;;1.30;99.90;;;;;;5077203;28;20031;-70
2021/12/09 07:56:58;;;;;;;168.65;58.20;;;1.30;99.90;;;;;;5077150;28;20032;-70
2021/12/09 07:59:24;;;;;;;173.15;61.20;;;1.30;99.90;;;;;;5076596;28;20082;-69
2021/12/09 08:01:50;;;;;;;174.32;57.50;;;1.30;99.90;;;;;;5086000;28;21824;-70
2021/12/09 08:04:16;;;;;;;165.10;58.25;;;1.30;99.90;;;;;;5076708;28;20025;-70
2021/12/09 08:06:41;;;;;;;163.85;58.08;;;1.30;99.90;;;;;;5090776;28;20040;-70
2021/12/09 08:09:08;;;;;;;180.10;60.53;;;1.30;99.90;;;;;;5077062;28;20029;-70
2021/12/09 08:11:36;;;;;;;167.55;56.40;;;1.30;99.90;;;;;;5078504;28;20048;-70
2021/12/09 08:14:03;;;;;;;172.82;58.75;;;1.30;99.90;;;;;;5086349;28;20019;-70
2021/12/09 08:16:31;;;;;;;176.65;54.55;;;1.30;99.90;;;;;;5083208;28;20032;-70
2021/12/09 08:18:56;;;;;;;193.50;61.17;;;1.30;99.90;;;;;;5093403;28;20024;-70
2021/12/09 08:21:27;;;;;;;171.77;57.47;;;1.30;99.90;;;;;;5095496;28;20028;-69
2021/12/09 08:23:53;;;;;;;171.55;60.80;;;1.20;99.90;;;;;;5076388;28;20032;-70
2021/12/09 08:26:21;;;;;;;165.63;58.55;;;1.20;99.90;;;;;;5076422;28;20036;-70
2021/12/09 08:28:47;;;;;;;175.43;59.45;;;1.30;99.90;;;;;;5091679;28;20515;-70
2021/12/09 08:31:13;;;;;;;164.50;55.67;;;1.30;99.90;;;;;;5096486;28;20028;-70
2021/12/09 08:33:39;;;;;;;164.93;57.75;;;1.40;99.90;;;;;;5093959;28;20035;-70
2021/12/09 08:36:05;;;;;;;171.00;59.90;;;1.40;99.90;;;;;;5095475;28;20034;-70
2021/12/09 08:38:31;;;;;;;173.85;58.95;;;1.40;99.90;;;;;;5084086;28;20104;-69
2021/12/09 08:40:57;;;;;;;172.48;60.05;;;1.30;99.90;;;;;;5075612;28;20100;-70
2021/12/09 08:43:23;;;;;;;155.32;57.08;;;1.40;99.90;;;;;;5083151;28;20213;-70
2021/12/09 08:45:53;;;;;;;163.50;56.75;;;1.40;99.90;;;;;;5083436;28;20502;-70
2021/12/09 08:48:19;;;;;;;168.40;58.55;;;1.40;99.90;;;;;;5094134;28;20039;-70
2021/12/09 08:50:45;;;;;;;174.05;61.15;;;1.40;99.90;;;;;;5095949;28;20099;-70
2021/12/09 08:53:14;;;;;;;163.55;59.95;;;1.40;99.90;;;;;;5081672;28;20100;-70
2021/12/09 08:55:41;;;;;;;168.52;60.95;;;1.40;99.90;;;;;;5089467;28;20388;-70
2021/12/09 08:58:10;;;;;;;172.25;57.70;;;1.40;99.90;;;;;;5075907;28;20028;-70
2021/12/09 09:00:36;;;;;;;186.55;61.83;;;1.40;99.90;;;;;;5075988;28;20085;-70
2021/12/09 09:03:03;;;;;;;166.65;61.10;;;1.50;99.90;;;;;;5077340;28;20042;-70
2021/12/09 09:05:30;;;;;;;157.10;60.33;;;1.50;99.90;;;;;;5080210;28;20028;-70
2021/12/09 09:07:56;;;;;;;163.90;57.75;;;1.50;99.90;;;;;;5077065;28;20107;-70
2021/12/09 09:10:25;;;;;;;161.57;60.42;;;1.50;99.90;;;;;;5094372;28;20563;-70
2021/12/09 09:12:52;;;;;;;155.75;57.83;;;1.50;99.90;;;;;;5094911;28;20028;-70
2021/12/09 09:15:20;;;;;;;160.18;57.38;;;1.50;99.90;;;;;;5093855;28;20024;-70
2021/12/09 09:17:47;;;;;;;166.93;58.88;;;1.50;99.90;;;;;;5095062;28;20031;-70
2021/12/09 09:20:16;;;;;;;161.65;59.13;;;1.50;99.90;;;;;;5085457;28;20395;-70
2021/12/09 09:22:42;;;;;;;171.60;58.45;;;1.60;99.90;;;;;;5075155;28;20032;-70
2021/12/09 09:25:14;;;;;;;177.48;60.40;;;1.60;99.90;;;;;;5093952;28;20034;-70
2021/12/09 09:27:40;;;;;;;168.40;58.38;;;1.60;99.90;;;;;;5095182;28;20027;-70
2021/12/09 09:30:07;;;;;;;174.38;58.97;;;1.60;99.90;;;;;;5077162;28;20054;-70
2021/12/09 09:32:34;;;;;;;145.25;53.53;;;1.60;99.90;;;;;;5074871;28;20028;-70
2021/12/09 09:35:00;;;;;;;158.35;60.22;;;1.60;99.90;;;;;;5091004;28;20028;-70
2021/12/09 09:37:25;;;;;;;143.18;54.05;;;1.70;99.90;;;;;;5093885;28;20028;-70
2021/12/09 09:39:51;;;;;;;161.10;58.58;;;1.70;99.90;;;;;;5080031;28;20029;-70
2021/12/09 09:42:34;;;;;;;154.48;55.97;;;1.70;99.90;;;;;;5075340;28;20524;-70
2021/12/09 09:45:00;;;;;;;152.63;54.83;;;1.70;99.90;;;;;;5088363;28;20025;-70
2021/12/09 09:47:27;;;;;;;159.48;57.70;;;1.70;99.90;;;;;;5092906;28;20038;-70
2021/12/09 09:49:56;;;;;;;152.00;58.55;;;1.80;99.90;;;;;;5080818;28;20028;-72
2021/12/09 09:52:22;;;;;;;143.15;53.72;;;1.80;99.90;;;;;;5076302;28;20044;-70
2021/12/09 09:54:48;;;;;;;157.52;58.58;;;1.80;99.90;;;;;;5086399;28;20052;-70
2021/12/09 09:57:14;;;;;;;148.40;56.30;;;1.80;99.90;;;;;;5095119;28;20386;-70
2021/12/09 09:59:41;;;;;;;145.10;57.75;;;1.70;99.90;;;;;;5093991;28;20036;-70
2021/12/09 10:02:10;;;;;;;147.73;55.47;;;1.80;99.90;;;;;;5094743;28;20031;-70
2021/12/09 10:04:46;;;;;;;152.65;57.78;;;1.80;99.90;;;;;;5084951;28;20087;-70
2021/12/09 10:07:16;;;;;;;168.48;55.95;;;1.80;99.90;;;;;;5075598;28;20024;-70
2021/12/09 10:09:42;;;;;;;160.50;56.42;;;1.80;99.90;;;;;;5074553;28;20060;-70
2021/12/09 10:12:08;;;;;;;156.63;58.67;;;1.80;99.90;;;;;;5074439;28;20017;-70
2021/12/09 10:14:35;;;;;;;157.32;56.55;;;1.80;99.90;;;;;;5080582;28;20583;-70
2021/12/09 10:17:10;;;;;;;152.10;55.92;;;1.90;99.90;;;;;;5094450;28;20036;-70
2021/12/09 10:19:57;;;;;;;158.32;60.72;;;1.90;99.90;;;;;;5082696;28;20025;-70
2021/12/09 10:22:27;;;;;;;156.18;56.33;;;1.90;99.90;;;;;;5073613;28;20068;-70
2021/12/09 10:24:55;;;;;;;158.90;56.85;;;2.00;99.90;;;;;;5090850;28;20028;-70
2021/12/09 10:27:28;;;;;;;146.30;54.92;;;1.90;99.90;;;;;;5093857;28;20433;-70
2021/12/09 10:29:59;;;;;;;157.02;57.35;;;2.00;99.90;;;;;;5077355;28;20017;-70
2021/12/09 10:32:30;;;;;;;142.52;55.40;;;2.00;99.90;;;;;;5073720;28;20028;-70
2021/12/09 10:35:01;;;;;;;158.73;55.88;;;2.00;99.90;;;;;;5088415;28;20073;-70
2021/12/09 10:37:28;;;;;;;143.55;57.05;;;2.10;99.90;;;;;;5091416;28;20112;-70
2021/12/09 10:39:57;;;;;;;147.65;56.95;;;2.10;99.90;;;;;;5093186;28;20050;-70
2021/12/09 10:42:36;;;;;;;158.50;57.65;;;2.10;99.90;;;;;;5073686;28;20025;-70
2021/12/09 10:45:06;;;;;;;140.50;56.15;;;2.10;99.90;;;;;;5088787;28;20027;-70
2021/12/09 10:47:55;;;;;;;150.85;56.17;;;2.10;99.90;;;;;;5093889;28;20071;-70
2021/12/09 10:53:32;;;;;;;150.80;57.85;;;2.20;99.90;;;;;;5079744;28;20027;-70
2021/12/09 10:56:13;;;;;;;137.35;54.55;;;2.20;99.90;;;;;;5072234;28;20145;-70
2021/12/09 10:58:48;;;;;;;147.93;55.58;;;2.10;99.90;;;;;;5075330;28;20028;-70
2021/12/09 11:01:19;;;;;;;142.52;53.38;;;2.20;99.90;;;;;;5091470;28;20053;-71
2021/12/09 11:03:50;;;;;;;138.68;54.42;;;2.10;99.90;;;;;;5088555;28;20055;-70
2021/12/09 11:06:34;;;;;;;149.77;55.88;;;2.10;99.90;;;;;;5073465;28;20032;-70
2021/12/09 11:09:06;;;;;;;136.43;54.15;;;2.10;99.90;;;;;;5076696;28;20051;-70
2021/12/09 11:11:41;;;;;;;151.57;54.67;;;2.10;99.90;;;;;;5091171;28;20028;-69
2021/12/09 11:14:14;;;;;;;144.77;54.13;;;2.20;99.90;;;;;;5088350;28;20020;-69
2021/12/09 11:17:08;;;;;;;155.63;54.83;;;2.20;99.90;;;;;;5073647;28;20542;-70
2021/12/09 11:19:38;;;;;;;;;;;2.10;99.90;;;;;;5071390;28;20091;-70
2021/12/09 11:22:08;;;;;;;147.98;54.22;;;2.10;99.90;;;;;;5075324;28;19904;-70
2021/12/09 11:24:44;;;;;;;153.05;56.17;;;2.20;99.90;;;;;;5073634;28;20032;-70
2021/12/09 11:27:13;;;;;;;144.15;53.00;;;2.20;99.90;;;;;;5072560;28;20025;-69
2021/12/09 11:29:46;;;;;;;126.30;49.80;;;2.10;99.90;;;;;;5086812;28;20059;-70
2021/12/09 11:32:47;;;;;;;145.60;53.25;;;2.10;99.90;;;;;;5092242;28;20054;-70
2021/12/09 11:35:20;;;;;;;140.50;53.35;;;2.10;99.90;;;;;;5096779;22;20151;-66
2021/12/09 11:38:02;;;;;;;144.93;54.63;;;2.20;99.90;;;;;;5073054;28;20509;-66
2021/12/09 11:40:46;;;;;;;157.20;54.47;;;2.20;99.90;;;;;;5073041;28;20059;-66
2021/12/09 11:43:18;;;;;;;;;;;2.20;99.90;;;;;;5072859;28;20020;-65
2021/12/09 11:45:45;;;;;;;147.20;53.97;;;2.20;99.90;;;;;;5073484;28;19912;-66
2021/12/09 11:48:12;;;;;;;145.32;54.63;;;2.20;99.90;;;;;;5072543;28;20488;-65
2021/12/09 11:50:47;;;;;;;147.38;55.42;;;2.20;99.90;;;;;;5052865;28;20387;-66
2021/12/09 11:53:15;;;;;;;154.50;53.80;;;2.20;99.90;;;;;;5052946;28;20029;-66
2021/12/09 11:55:46;;;;;;;151.65;56.38;;;2.30;99.90;;;;;;5071268;28;20123;-65
2021/12/09 11:58:25;;;;;;;146.93;54.58;;;2.30;99.90;;;;;;5073147;28;20024;-66
2021/12/09 12:12:24;;;;;;;148.50;57.50;;;2.60;99.90;;;;;;5072761;28;20115;-66
2021/12/09 12:14:54;;;;;;;150.02;58.47;;;2.70;99.90;;;;;;5072242;28;20541;-66
2021/12/09 12:17:30;;;;;;;151.27;55.10;;;2.70;99.90;;;;;;5072108;28;20028;-66
2021/12/09 12:20:17;;;;;;;130.68;52.00;;;2.70;99.90;;;;;;5072944;28;20388;-66
2021/12/09 12:23:25;;;;;;;138.52;53.38;;;2.70;99.90;;;;;;5065137;28;20032;-66
2021/12/09 12:39:48;;;;;;;143.50;55.28;;;2.50;99.90;;;;;;5076013;28;20047;-66
2021/12/09 12:42:36;;;;;;;149.85;56.90;;;2.50;99.90;;;;;;5075974;28;20024;-65
2021/12/09 12:48:29;;;;;;;145.30;56.05;;;2.50;99.90;;;;;;5074129;28;20036;-66
2021/12/09 12:51:21;;;;;;;150.10;55.95;;;2.40;99.90;;;;;;5075258;28;20020;-66
2021/12/09 12:56:59;;;;;;;136.98;53.90;;;2.40;99.90;;;;;;5074222;28;20039;-66
2021/12/09 12:59:34;;;;;;;142.55;54.90;;;2.40;99.90;;;;;;5075952;28;20103;-66
2021/12/09 13:02:02;;;;;;;138.93;55.72;;;2.40;99.90;;;;;;5068055;28;20021;-66
2021/12/09 13:04:48;;;;;;;158.32;55.30;;;2.30;99.90;;;;;;5055247;28;20094;-66
2021/12/09 13:07:30;;;;;;;139.60;54.58;;;2.30;99.90;;;;;;5065514;28;20028;-67
2021/12/09 13:13:36;;;;;;;137.68;55.35;;;2.30;99.90;;;;;;4991947;28;20026;-67